Time;durP1;ratioP1;P1;durP2;ratioP2;P2;SDS_P1;SDS_P2;PMS_P1;PMS_P2;Temp;Humidity;BMP_temperature;BMP_pressure;BME280_temperature;BME280_humidity;BME280_pressure;Samples;Min_cycle;Max_cycle;Signal;HPM_P1;HPM_P2
2021/05/18 00:00:10;;;;;;;40.13;16.92;;;8.10;99.90;;;;;;4178620;28;20029;-74
2021/05/18 00:02:29;;;;;;;42.30;18.92;;;8.00;99.90;;;;;;4179329;28;20044;-73
2021/05/18 00:14:27;;;;;;;43.45;18.35;;;8.10;99.90;;;;;;4179268;28;20032;-72
2021/05/18 00:16:27;;;;;;;36.70;17.13;;;8.10;99.90;;;;;;4179034;28;20091;-73
2021/05/18 00:18:28;;;;;;;39.90;17.65;;;8.00;99.90;;;;;;4176214;28;20033;-73
2021/05/18 00:20:29;;;;;;;39.47;17.85;;;8.00;99.90;;;;;;4161285;28;20068;-73
2021/05/18 00:30:25;;;;;;;36.58;17.95;;;7.70;99.90;;;;;;4166215;28;20367;-72
2021/05/18 00:32:26;;;;;;;41.33;16.48;;;7.70;99.90;;;;;;4178993;28;20487;-73
2021/05/18 00:34:27;;;;;;;31.77;17.00;;;7.70;99.90;;;;;;4160639;28;20128;-72
2021/05/18 00:36:27;;;;;;;42.90;18.73;;;7.70;99.90;;;;;;4178765;28;20103;-73
2021/05/18 00:38:28;;;;;;;47.05;20.08;;;7.70;99.90;;;;;;4161189;28;20056;-73
2021/05/18 00:40:47;;;;;;;39.80;18.17;;;7.70;99.90;;;;;;4179411;28;20083;-73
2021/05/18 00:43:07;;;;;;;44.75;19.35;;;6.60;99.90;;;;;;4179300;28;20128;-72
2021/05/18 00:45:26;;;;;;;46.20;20.67;;;7.70;99.90;;;;;;4160965;28;20037;-73
2021/05/18 00:47:45;;;;;;;47.20;19.17;;;7.70;99.90;;;;;;4178882;28;20033;-72
2021/05/18 00:49:46;;;;;;;44.00;19.90;;;7.60;99.90;;;;;;4179074;28;20128;-73
2021/05/18 00:54:27;;;;;;;40.55;19.90;;;7.40;99.90;;;;;;4181502;28;20110;-72
2021/05/18 00:58:54;;;;;;;45.58;18.95;;;7.10;99.90;;;;;;4177149;28;19912;-73
2021/05/18 01:03:54;;;;;;;46.85;19.05;;;7.00;99.90;;;;;;4180096;28;20384;-72
2021/05/18 01:10:53;;;;;;;46.55;19.58;;;6.90;99.90;;;;;;4168825;28;20079;-72
2021/05/18 01:12:53;;;;;;;50.50;21.80;;;6.90;99.90;;;;;;4162846;28;20061;-72
2021/05/18 01:14:54;;;;;;;49.70;21.27;;;7.00;99.90;;;;;;4180278;28;20070;-73
2021/05/18 01:16:55;;;;;;;48.80;21.88;;;7.10;99.90;;;;;;4163496;28;20119;-72
2021/05/18 01:19:16;;;;;;;42.47;19.73;;;7.20;99.90;;;;;;4164003;28;20079;-72
2021/05/18 01:21:55;;;;;;;48.70;23.33;;;7.30;99.90;;;;;;4181336;28;20688;-72
2021/05/18 01:24:15;;;;;;;53.35;22.90;;;7.40;99.90;;;;;;4165408;28;20111;-72
2021/05/18 01:26:16;;;;;;;58.08;23.30;;;7.50;99.90;;;;;;4181131;28;20156;-73
2021/05/18 01:30:38;;;;;;;61.22;25.98;;;7.70;99.90;;;;;;4181119;28;20117;-73
2021/05/18 01:35:16;;;;;;;60.50;27.38;;;7.80;99.90;;;;;;4181018;28;20095;-72
2021/05/18 01:37:17;;;;;;;65.80;25.48;;;7.90;99.90;;;;;;4163093;28;20033;-73
2021/05/18 01:51:37;;;;;;;58.90;25.67;;;8.10;99.90;;;;;;4166557;28;22252;-74
2021/05/18 01:53:37;;;;;;;59.87;24.87;;;8.20;99.90;;;;;;4180882;28;21915;-73
2021/05/18 01:58:17;;;;;;;62.55;26.33;;;8.20;99.90;;;;;;4181125;28;20040;-72
2021/05/18 02:00:38;;;;;;;64.60;27.60;;;8.30;99.90;;;;;;4180622;28;20022;-72
2021/05/18 02:02:38;;;;;;;56.85;26.27;;;8.30;99.90;;;;;;4180965;28;20033;-72
2021/05/18 02:04:42;;;;;;;68.22;28.58;;;7.20;99.90;;;;;;4162669;28;20147;-73
2021/05/18 02:14:32;;;;;;;63.67;29.13;;;8.20;99.90;;;;;;4169302;28;20118;-73
2021/05/18 02:16:34;;;;;;;70.05;27.00;;;8.50;99.90;;;;;;4180130;28;20029;-74
2021/05/18 02:25:44;;;;;;;63.65;29.27;;;8.80;99.90;;;;;;4180647;28;20078;-73
2021/05/18 02:27:45;;;;;;;69.60;28.20;;;8.70;99.90;;;;;;4180596;28;20166;-73
2021/05/18 02:29:46;;;;;;;60.42;29.65;;;8.70;99.90;;;;;;4180577;28;20035;-74
2021/05/18 02:32:05;;;;;;;60.67;30.17;;;8.70;99.90;;;;;;4179926;28;20112;-74
2021/05/18 02:34:06;;;;;;;59.45;27.73;;;8.70;99.90;;;;;;4150230;28;20095;-74
2021/05/18 02:36:08;;;;;;;59.67;28.33;;;8.80;99.90;;;;;;4179660;28;20116;-73
2021/05/18 02:40:47;;;;;;;56.33;27.10;;;8.80;99.90;;;;;;4180363;28;20029;-72
2021/05/18 02:42:50;;;;;;;61.20;27.50;;;8.80;99.90;;;;;;4180228;28;20029;-73
2021/05/18 02:50:25;;;;;;;49.92;27.73;;;9.00;99.90;;;;;;4180137;28;20117;-73
2021/05/18 02:52:28;;;;;;;62.80;25.85;;;9.00;99.90;;;;;;4178182;28;20043;-73
2021/05/18 02:54:28;;;;;;;53.45;26.95;;;9.10;99.90;;;;;;4162010;28;20037;-73
2021/05/18 02:56:52;;;;;;;52.50;26.70;;;9.10;99.90;;;;;;4179978;28;20033;-72
2021/05/18 03:07:25;;;;;;;56.22;27.00;;;9.30;99.90;;;;;;4179593;28;20110;-73
2021/05/18 03:09:26;;;;;;;53.53;25.30;;;9.30;99.90;;;;;;4179615;28;20037;-74
2021/05/18 03:11:46;;;;;;;48.85;25.88;;;8.90;99.90;;;;;;4162126;28;20036;-73
2021/05/18 03:13:48;;;;;;;50.92;26.25;;;9.40;99.90;;;;;;4179282;28;20029;-74
2021/05/18 03:15:49;;;;;;;44.20;26.55;;;9.30;99.90;;;;;;4178978;28;20040;-73
2021/05/18 03:18:08;;;;;;;46.17;26.90;;;9.40;99.90;;;;;;4179674;28;20040;-73
2021/05/18 03:20:29;;;;;;;46.45;26.10;;;9.40;99.90;;;;;;4179364;28;20029;-72
2021/05/18 03:22:49;;;;;;;46.60;28.17;;;9.40;99.90;;;;;;4179693;28;20383;-73
2021/05/18 03:24:49;;;;;;;51.25;26.70;;;9.50;99.90;;;;;;4161643;28;20037;-73
2021/05/18 03:29:49;;;;;;;38.75;23.63;;;9.40;99.90;;;;;;4179419;28;20043;-73
2021/05/18 03:37:34;;;;;;;40.83;25.35;;;9.40;99.90;;;;;;4179302;28;20036;-72
2021/05/18 03:44:47;;;;;;;44.53;24.73;;;9.60;99.90;;;;;;4179059;28;20032;-72
2021/05/18 04:17:15;;;;;;;45.20;24.17;;;9.90;99.90;;;;;;4177129;28;20032;-73
2021/05/18 04:19:32;;;;;;;34.03;23.00;;;9.90;99.90;;;;;;4171329;28;20045;-73
2021/05/18 04:40:52;;;;;;;40.53;26.35;;;10.20;99.90;;;;;;4181919;28;20526;-72
2021/05/18 04:59:55;;;;;;;42.90;30.10;;;10.70;99.90;;;;;;4110593;28;20049;-74
2021/05/18 05:15:04;;;;;;;44.13;30.50;;;10.60;99.90;;;;;;4179408;28;20063;-72
2021/05/18 05:17:05;;;;;;;45.30;33.10;;;10.70;99.90;;;;;;4172893;28;20068;-73
2021/05/18 05:24:03;;;;;;;49.17;33.40;;;10.80;99.90;;;;;;4181433;28;20032;-74
2021/05/18 05:26:04;;;;;;;54.10;32.50;;;10.90;99.90;;;;;;4195320;28;20029;-72
2021/05/18 05:28:05;;;;;;;50.80;31.95;;;11.00;99.90;;;;;;4180407;28;20040;-73
2021/05/18 05:30:06;;;;;;;45.83;32.42;;;11.10;99.90;;;;;;4162820;28;21846;-73
2021/05/18 05:34:26;;;;;;;49.80;33.35;;;11.30;99.90;;;;;;4180220;28;20134;-74
2021/05/18 05:36:45;;;;;;;46.50;32.78;;;11.30;99.90;;;;;;4156088;28;20030;-72
2021/05/18 05:41:28;;;;;;;41.58;30.63;;;11.30;99.90;;;;;;4180376;28;20035;-73
2021/05/18 05:43:28;;;;;;;45.75;32.17;;;11.40;99.90;;;;;;4180669;28;20508;-73
2021/05/18 05:45:29;;;;;;;48.15;31.63;;;11.40;99.90;;;;;;4181228;28;20037;-73
2021/05/18 05:47:30;;;;;;;47.15;32.40;;;11.50;99.90;;;;;;4180643;28;20376;-74
2021/05/18 05:49:50;;;;;;;45.42;32.88;;;11.50;99.90;;;;;;4180780;28;20037;-74
2021/05/18 05:54:28;;;;;;;41.35;31.83;;;11.60;99.90;;;;;;4180170;28;20186;-73
2021/05/18 05:56:48;;;;;;;40.70;30.27;;;11.60;99.90;;;;;;4180749;28;20025;-73
2021/05/18 05:59:08;;;;;;;43.83;31.58;;;11.60;99.90;;;;;;4180850;28;20045;-74
2021/05/18 06:01:09;;;;;;;40.08;29.85;;;11.60;99.90;;;;;;4178614;28;20398;-74
2021/05/18 06:03:09;;;;;;;38.42;28.17;;;11.80;99.90;;;;;;4162885;28;20018;-75
2021/05/18 06:07:48;;;;;;;35.88;27.75;;;12.10;99.90;;;;;;4180788;28;20075;-75
2021/05/18 06:10:15;;;;;;;38.47;27.73;;;12.10;99.90;;;;;;4180731;28;20120;-75
2021/05/18 06:15:32;;;;;;;38.65;28.05;;;12.10;99.90;;;;;;4180671;28;20435;-75
2021/05/18 06:18:06;;;;;;;33.88;25.27;;;12.20;99.90;;;;;;4162370;28;20042;-76
2021/05/18 06:47:35;;;;;;;30.33;24.42;;;12.60;99.90;;;;;;4176620;28;20468;-74
2021/05/18 06:49:24;;;;;;;36.05;25.05;;;12.60;99.90;;;;;;4164637;28;20033;-74
2021/05/18 06:51:25;;;;;;;32.85;23.02;;;12.40;99.90;;;;;;4176658;28;20033;-75
2021/05/18 06:54:04;;;;;;;35.88;26.23;;;12.30;99.90;;;;;;4179301;28;20110;-76
2021/05/18 06:56:31;;;;;;;35.72;27.33;;;12.20;99.90;;;;;;4177585;28;20045;-74
2021/05/18 07:01:11;;;;;;;37.38;24.83;;;11.90;99.90;;;;;;4179357;28;20117;-74
2021/05/18 07:03:18;;;;;;;34.65;25.95;;;11.80;99.90;;;;;;4178538;28;20061;-73
2021/05/18 07:10:16;;;;;;;38.05;25.85;;;11.60;99.90;;;;;;4178903;28;20094;-74
2021/05/18 07:12:37;;;;;;;32.40;25.17;;;11.70;99.90;;;;;;4178527;28;20028;-74
2021/05/18 07:14:38;;;;;;;28.67;23.02;;;11.90;99.90;;;;;;4161164;28;20093;-74
2021/05/18 07:16:38;;;;;;;32.35;23.92;;;12.00;99.90;;;;;;4161183;28;20029;-75
2021/05/18 07:21:17;;;;;;;32.38;24.73;;;12.40;99.90;;;;;;4173160;28;20052;-74
2021/05/18 07:23:21;;;;;;;29.05;22.92;;;12.70;99.90;;;;;;4160779;28;21673;-73
2021/05/18 07:25:22;;;;;;;33.65;23.13;;;13.00;99.90;;;;;;4168400;28;20684;-74
2021/05/18 07:30:02;;;;;;;26.10;22.23;;;13.30;99.90;;;;;;4173250;28;20059;-74
2021/05/18 07:32:22;;;;;;;28.50;20.75;;;13.10;99.90;;;;;;4176904;28;20060;-75
2021/05/18 07:34:41;;;;;;;32.55;23.48;;;12.90;99.90;;;;;;4178815;28;20033;-74
2021/05/18 07:37:01;;;;;;;27.95;21.88;;;12.70;99.90;;;;;;4177303;28;20041;-74
2021/05/18 07:39:03;;;;;;;32.10;22.55;;;12.90;99.90;;;;;;4189894;28;20036;-75
2021/05/18 07:41:05;;;;;;;25.73;20.25;;;13.00;99.90;;;;;;4179010;28;20033;-75
2021/05/18 07:43:06;;;;;;;26.83;20.50;;;13.20;99.90;;;;;;4178700;28;20033;-75
2021/05/18 07:45:08;;;;;;;28.40;20.75;;;13.40;99.90;;;;;;4160906;28;20111;-74
2021/05/18 07:47:12;;;;;;;25.08;17.98;;;13.60;99.90;;;;;;4178305;28;20071;-74
2021/05/18 08:06:16;;;;;;;27.27;17.67;;;14.30;99.90;;;;;;4163197;28;20052;-75
2021/05/18 08:08:36;;;;;;;22.55;15.85;;;14.40;99.90;;;;;;4165353;28;20368;-74
2021/05/18 08:13:22;;;;;;;21.90;15.95;;;15.10;99.90;;;;;;4164986;28;20029;-73
2021/05/18 08:18:59;;;;;;;21.90;16.40;;;15.60;99.90;;;;;;4163183;28;20096;-74
2021/05/18 10:35:49;;;;;;;14.30;9.55;;;16.60;99.90;;;;;;4178439;28;20041;-73
2021/05/18 10:40:48;;;;;;;9.00;7.45;;;14.60;99.90;;;;;;4173128;28;20449;-74
2021/05/18 10:46:05;;;;;;;7.80;6.35;;;13.40;99.90;;;;;;4178495;28;20040;-73
2021/05/18 10:50:44;;;;;;;7.22;5.72;;;13.60;99.90;;;;;;4178620;28;20036;-75
2021/05/18 10:53:03;;;;;;;9.80;5.85;;;14.60;99.90;;;;;;4170720;28;20028;-73
2021/05/18 10:55:07;;;;;;;9.95;6.22;;;15.60;99.90;;;;;;4178265;28;20535;-74
2021/05/18 10:57:14;;;;;;;6.68;5.53;;;16.60;99.90;;;;;;4174210;28;20152;-74
2021/05/18 11:02:06;;;;;;;9.43;5.80;;;18.60;99.90;;;;;;4178789;28;20068;-74
2021/05/18 11:04:07;;;;;;;10.00;6.90;;;19.50;99.90;;;;;;4174858;28;20056;-74
2021/05/18 11:14:52;;;;;;;9.18;6.40;;;17.50;99.90;;;;;;4174041;28;20121;-73
2021/05/18 11:17:30;;;;;;;10.00;6.65;;;18.50;99.90;;;;;;4155031;28;20084;-73
2021/05/18 11:27:47;;;;;;;6.47;5.63;;;16.80;99.90;;;;;;4171738;28;20041;-75
2021/05/18 11:29:47;;;;;;;10.48;7.03;;;15.30;99.90;;;;;;4188600;28;20025;-74
2021/05/18 11:32:07;;;;;;;8.85;7.03;;;14.70;99.90;;;;;;4161384;28;20441;-76
2021/05/18 11:34:26;;;;;;;8.23;6.85;;;14.50;99.90;;;;;;4154878;28;20120;-74
2021/05/18 11:36:46;;;;;;;8.00;6.30;;;14.10;99.90;;;;;;4178600;28;20025;-75
2021/05/18 11:38:54;;;;;;;7.55;6.78;;;13.80;99.90;;;;;;4179104;28;20037;-75
2021/05/18 11:40:56;;;;;;;9.02;6.10;;;14.20;99.90;;;;;;4161317;28;20104;-73
2021/05/18 11:43:15;;;;;;;7.35;5.90;;;15.30;99.90;;;;;;4179275;28;20033;-75
2021/05/18 11:45:17;;;;;;;7.10;6.18;;;16.30;99.90;;;;;;4160966;28;20032;-74
2021/05/18 11:47:45;;;;;;;8.87;6.07;;;17.40;99.90;;;;;;4161386;28;20096;-74
2021/05/18 11:52:06;;;;;;;8.70;4.65;;;18.40;99.90;;;;;;4178628;28;20086;-75
2021/05/18 11:54:07;;;;;;;7.72;3.97;;;18.80;99.90;;;;;;4161141;28;20042;-74
2021/05/18 11:58:47;;;;;;;9.60;4.50;;;19.30;99.90;;;;;;4174136;28;20765;-74
2021/05/18 12:03:26;;;;;;;8.13;5.30;;;18.20;99.90;;;;;;4177694;28;20403;-74
2021/05/18 12:05:27;;;;;;;4.72;4.32;;;17.70;99.90;;;;;;4159582;28;20033;-75
2021/05/18 12:07:32;;;;;;;7.30;3.80;;;18.00;99.90;;;;;;4160622;28;20033;-74
2021/05/18 12:12:30;;;;;;;6.03;3.78;;;19.70;99.90;;;;;;4177536;28;20027;-73
2021/05/18 12:14:31;;;;;;;9.55;4.18;;;20.60;99.90;;;;;;4177643;28;20114;-74
2021/05/18 12:16:57;;;;;;;5.82;4.28;;;20.80;99.90;;;;;;4177576;28;20025;-74
2021/05/18 12:19:00;;;;;;;6.45;3.78;;;20.40;99.90;;;;;;4176546;28;20036;-75
2021/05/18 12:21:21;;;;;;;4.45;4.05;;;20.20;99.90;;;;;;4149370;28;20117;-75
2021/05/18 12:23:41;;;;;;;5.63;4.03;;;19.50;99.90;;;;;;4176665;28;20052;-74
2021/05/18 12:26:00;;;;;;;5.45;4.65;;;19.20;99.90;;;;;;4154979;28;20436;-74
2021/05/18 12:28:20;;;;;;;10.18;4.13;;;18.90;99.90;;;;;;4176564;28;20028;-75
2021/05/18 12:30:51;;;;;;;7.68;3.50;;;19.40;99.90;;;;;;4159316;28;20026;-74
2021/05/18 12:38:40;;;;;;;4.82;3.88;;;18.60;99.90;;;;;;4177352;28;20094;-75
2021/05/18 12:40:43;;;;;;;10.15;5.68;;;18.40;99.90;;;;;;4160776;28;20030;-75
2021/05/18 12:43:03;;;;;;;5.63;3.55;;;20.20;99.90;;;;;;4175286;28;20029;-74
2021/05/18 12:45:24;;;;;;;7.95;3.50;;;20.40;99.90;;;;;;4177539;28;20345;-75
2021/05/18 12:48:02;;;;;;;5.30;3.40;;;21.10;99.90;;;;;;4177760;28;20029;-74
2021/05/18 12:52:40;;;;;;;5.25;4.40;;;19.20;99.90;;;;;;4145621;28;20072;-75
2021/05/18 13:00:11;;;;;;;5.72;4.50;;;17.70;99.90;;;;;;4145681;28;20045;-75
2021/05/18 13:05:21;;;;;;;5.88;4.13;;;19.10;99.90;;;;;;4145186;28;20921;-76
2021/05/18 13:07:22;;;;;;;5.35;3.70;;;19.30;99.90;;;;;;4145211;28;20915;-75
2021/05/18 13:09:28;;;;;;;6.10;3.53;;;18.90;99.90;;;;;;4145913;28;20190;-74
2021/05/18 13:12:15;;;;;;;4.60;3.33;;;18.50;99.90;;;;;;4144427;28;20034;-74
2021/05/18 13:14:34;;;;;;;5.68;3.53;;;18.90;99.90;;;;;;4142557;28;20405;-74
2021/05/18 13:16:53;;;;;;;4.57;2.70;;;19.00;99.90;;;;;;4146691;28;20121;-75
2021/05/18 13:19:03;;;;;;;5.13;3.33;;;19.00;99.90;;;;;;4137044;28;20109;-74
2021/05/18 13:21:22;;;;;;;5.60;3.50;;;19.80;99.90;;;;;;4154944;28;20030;-75
2021/05/18 13:30:40;;;;;;;3.83;3.40;;;20.80;99.90;;;;;;4138561;28;20083;-74
2021/05/18 13:35:20;;;;;;;4.20;3.53;;;20.90;99.90;;;;;;4135196;28;20049;-72
2021/05/18 13:37:59;;;;;;;4.97;3.97;;;21.00;99.90;;;;;;4148062;28;20047;-74
2021/05/18 13:40:37;;;;;;;7.65;3.50;;;21.40;99.90;;;;;;4158390;28;20054;-74
2021/05/18 13:45:15;;;;;;;8.65;3.88;;;20.50;99.90;;;;;;4147637;28;20037;-74
2021/05/18 13:49:35;;;;;;;5.45;3.33;;;20.80;99.90;;;;;;4180580;28;20090;-73
2021/05/18 13:51:36;;;;;;;5.72;3.53;;;19.80;99.90;;;;;;4154600;28;20038;-73
2021/05/18 13:53:55;;;;;;;3.97;3.35;;;19.10;99.90;;;;;;4162250;28;20029;-73
2021/05/18 13:56:14;;;;;;;3.58;2.70;;;19.60;99.90;;;;;;4168308;28;20083;-73
2021/05/18 13:58:16;;;;;;;6.70;2.80;;;20.50;99.90;;;;;;4162817;28;20168;-72
2021/05/18 14:00:36;;;;;;;6.67;3.17;;;21.20;99.90;;;;;;4173698;28;20025;-73
2021/05/18 14:02:38;;;;;;;3.30;2.58;;;21.10;99.90;;;;;;4180310;28;20071;-73
2021/05/18 14:04:38;;;;;;;5.60;3.40;;;20.30;99.90;;;;;;4179332;28;20099;-74
2021/05/18 14:07:05;;;;;;;9.95;3.00;;;19.60;99.90;;;;;;4179896;28;20029;-72
2021/05/18 14:09:23;;;;;;;3.63;3.08;;;19.30;99.90;;;;;;4162098;28;20236;-73
2021/05/18 14:11:27;;;;;;;3.58;2.40;;;19.00;99.90;;;;;;4180009;28;20039;-72
2021/05/18 14:13:47;;;;;;;15.13;3.05;;;19.90;99.90;;;;;;4178431;28;20033;-73
2021/05/18 14:18:07;;;;;;;3.45;2.47;;;21.00;99.90;;;;;;4179733;28;20075;-74
2021/05/18 14:20:08;;;;;;;4.72;2.30;;;20.90;99.90;;;;;;4179794;28;20033;-72
2021/05/18 14:22:27;;;;;;;2.83;2.38;;;21.10;99.90;;;;;;4162429;28;20274;-73
2021/05/18 14:27:09;;;;;;;4.63;3.03;;;19.70;99.90;;;;;;4179821;28;20155;-72
2021/05/18 14:32:06;;;;;;;4.93;2.67;;;18.80;99.90;;;;;;4178091;28;20039;-73
2021/05/18 14:34:07;;;;;;;2.85;2.55;;;18.40;99.90;;;;;;4172341;28;20095;-75
2021/05/18 14:38:28;;;;;;;5.97;2.33;;;19.30;99.90;;;;;;4179018;28;20036;-72
2021/05/18 14:43:59;;;;;;;7.25;2.13;;;21.40;99.90;;;;;;4177516;28;20070;-73
2021/05/18 14:47:06;;;;;;;4.03;2.30;;;22.10;99.90;;;;;;4159958;28;20112;-74
2021/05/18 14:53:42;;;;;;;4.72;2.65;;;22.60;93.10;;;;;;4160371;28;20124;-74
2021/05/18 15:01:06;;;;;;;2.47;2.20;;;22.60;92.70;;;;;;4173741;28;20515;-74
2021/05/18 15:03:07;;;;;;;5.78;2.30;;;22.90;90.70;;;;;;4175742;28;20484;-74
2021/05/18 15:05:08;;;;;;;5.60;2.65;;;22.50;90.40;;;;;;4179822;28;20079;-74
2021/05/18 15:07:47;;;;;;;2.75;2.10;;;22.10;90.90;;;;;;4178702;28;20068;-73
2021/05/18 15:09:48;;;;;;;6.18;2.53;;;22.40;90.20;;;;;;4177029;28;20528;-73
2021/05/18 15:11:48;;;;;;;4.60;2.15;;;22.20;90.60;;;;;;4178687;28;20041;-73
2021/05/18 15:14:08;;;;;;;2.35;2.15;;;21.40;89.90;;;;;;4177306;28;20483;-72
2021/05/18 15:16:08;;;;;;;2.92;2.00;;;21.30;91.90;;;;;;4160974;28;20079;-72
2021/05/18 15:18:10;;;;;;;2.60;1.90;;;21.60;91.60;;;;;;4178492;28;20115;-73
2021/05/18 15:20:12;;;;;;;5.47;2.33;;;21.10;92.30;;;;;;4179429;28;20395;-72
2021/05/18 15:22:13;;;;;;;5.70;2.38;;;20.30;92.80;;;;;;4178931;28;20017;-72
2021/05/18 15:26:34;;;;;;;4.72;1.75;;;20.70;91.80;;;;;;4178515;28;20028;-72
2021/05/18 15:28:53;;;;;;;2.15;1.90;;;21.00;91.20;;;;;;4179183;28;20480;-72
2021/05/18 15:30:55;;;;;;;4.43;2.15;;;20.90;93.30;;;;;;4154492;28;20045;-73
2021/05/18 15:33:15;;;;;;;7.53;2.25;;;21.40;94.10;;;;;;4157551;28;20031;-72
2021/05/18 15:37:53;;;;;;;2.25;1.75;;;22.50;93.20;;;;;;4177527;28;20036;-73
2021/05/18 15:39:54;;;;;;;2.10;1.95;;;23.00;86.60;;;;;;4178880;28;20495;-74
2021/05/18 15:41:54;;;;;;;4.82;1.75;;;22.90;88.60;;;;;;4161265;28;20072;-73
2021/05/18 15:44:13;;;;;;;2.20;2.00;;;23.20;85.30;;;;;;4178823;28;20392;-74
2021/05/18 15:46:15;;;;;;;2.88;2.38;;;23.00;81.60;;;;;;4157412;28;20041;-74
2021/05/18 15:48:34;;;;;;;2.75;1.73;;;22.80;81.80;;;;;;4168331;28;20087;-74
2021/05/18 15:50:54;;;;;;;3.35;2.00;;;22.80;83.10;;;;;;4178710;28;20040;-74
2021/05/18 15:53:13;;;;;;;4.13;2.20;;;22.40;85.60;;;;;;4160066;28;20041;-75
2021/05/18 15:55:32;;;;;;;2.22;2.03;;;21.70;85.80;;;;;;4178619;28;20103;-75
2021/05/18 16:03:08;;;;;;;3.13;2.10;;;21.60;86.50;;;;;;4173073;28;20392;-75
2021/05/18 16:05:28;;;;;;;2.13;1.88;;;21.80;85.40;;;;;;4189961;28;20029;-74
2021/05/18 16:10:06;;;;;;;5.13;2.40;;;22.60;85.80;;;;;;4166434;28;20075;-73
2021/05/18 16:14:47;;;;;;;3.05;2.50;;;22.40;86.10;;;;;;4178690;28;20083;-76
2021/05/18 16:17:06;;;;;;;3.60;2.10;;;22.30;87.70;;;;;;4178854;28;20064;-74
2021/05/18 16:19:25;;;;;;;4.05;1.92;;;22.30;85.90;;;;;;4156128;28;20591;-75
2021/05/18 16:21:45;;;;;;;4.82;2.17;;;22.50;87.50;;;;;;4156801;28;20034;-74
2021/05/18 16:23:48;;;;;;;2.15;1.95;;;22.90;89.00;;;;;;4163620;28;20033;-74
2021/05/18 16:26:08;;;;;;;3.88;2.30;;;22.90;79.70;;;;;;4164454;28;20041;-74
2021/05/18 16:28:27;;;;;;;9.05;3.75;;;22.30;83.70;;;;;;4166461;28;20112;-73
2021/05/18 16:31:09;;;;;;;5.53;3.42;;;22.10;81.80;;;;;;4175200;28;20082;-74
2021/05/18 16:33:09;;;;;;;8.52;6.43;;;22.00;78.80;;;;;;4163931;28;20500;-73
2021/05/18 16:35:12;;;;;;;5.43;2.00;;;21.90;81.20;;;;;;4181617;28;20040;-75
2021/05/18 16:37:13;;;;;;;1.85;1.67;;;21.40;80.90;;;;;;4181756;28;20033;-73
2021/05/18 16:39:15;;;;;;;3.50;1.95;;;20.90;81.10;;;;;;4163868;28;20159;-74
2021/05/18 16:41:17;;;;;;;3.35;1.77;;;21.00;81.90;;;;;;4181525;28;20033;-74
2021/05/18 16:46:15;;;;;;;1.75;1.65;;;20.90;83.30;;;;;;4181590;28;20036;-74
2021/05/18 16:48:15;;;;;;;3.95;1.92;;;21.00;85.20;;;;;;4181540;28;20025;-75
2021/05/18 16:50:34;;;;;;;3.55;1.95;;;21.10;82.30;;;;;;4181413;28;20465;-75
2021/05/18 16:52:36;;;;;;;3.15;1.80;;;20.90;82.70;;;;;;4174851;28;20492;-75
2021/05/18 16:54:56;;;;;;;2.50;1.90;;;20.90;83.90;;;;;;4163376;28;20448;-75
2021/05/18 16:56:57;;;;;;;2.85;1.90;;;20.80;83.50;;;;;;4160395;28;20355;-75
2021/05/18 16:58:58;;;;;;;2.45;2.25;;;21.00;86.40;;;;;;4163214;28;20025;-74
2021/05/18 17:00:59;;;;;;;1.70;1.60;;;21.40;81.20;;;;;;4181292;28;20029;-74
2021/05/18 17:03:18;;;;;;;2.30;2.05;;;21.40;80.10;;;;;;4181314;28;20090;-75
2021/05/18 17:08:16;;;;;;;2.13;1.65;;;20.50;81.50;;;;;;4179409;28;20063;-75
2021/05/18 17:10:17;;;;;;;3.38;2.72;;;20.60;83.80;;;;;;4174486;28;20028;-74
2021/05/18 17:12:36;;;;;;;6.22;3.80;;;20.50;85.00;;;;;;4162263;28;20026;-75
2021/05/18 17:17:15;;;;;;;3.13;2.40;;;20.20;90.40;;;;;;4172765;28;20032;-74
2021/05/18 17:19:16;;;;;;;2.80;2.00;;;20.50;90.40;;;;;;4161834;28;20030;-74
2021/05/18 17:21:35;;;;;;;4.50;2.33;;;20.60;90.40;;;;;;4179531;28;20079;-74
2021/05/18 17:23:38;;;;;;;5.05;1.80;;;20.80;90.50;;;;;;4161909;28;20052;-75
2021/05/18 17:28:17;;;;;;;2.40;2.20;;;20.80;87.40;;;;;;4176178;28;20087;-75
2021/05/18 17:30:25;;;;;;;3.53;1.90;;;20.50;85.00;;;;;;4177007;28;20419;-74
2021/05/18 17:32:26;;;;;;;4.72;2.17;;;20.40;85.30;;;;;;4180271;28;20037;-75
2021/05/18 17:34:27;;;;;;;3.55;1.85;;;20.40;86.00;;;;;;4179894;28;20131;-75
2021/05/18 17:36:28;;;;;;;1.70;1.60;;;20.50;85.90;;;;;;4162444;28;20093;-74
2021/05/18 17:41:07;;;;;;;2.88;1.77;;;20.20;88.70;;;;;;4176963;28;20040;-75
2021/05/18 17:45:46;;;;;;;3.20;2.33;;;20.10;87.30;;;;;;4170266;28;20423;-75
2021/05/18 17:47:46;;;;;;;2.95;1.90;;;19.80;89.70;;;;;;4162517;28;20037;-75
2021/05/18 17:50:07;;;;;;;2.60;2.15;;;19.60;90.60;;;;;;4162976;28;20046;-75
2021/05/18 17:54:28;;;;;;;3.65;2.08;;;19.90;90.70;;;;;;4157299;28;20040;-75
2021/05/18 17:56:29;;;;;;;3.40;1.80;;;19.60;90.90;;;;;;4164407;28;20153;-76
2021/05/18 17:59:08;;;;;;;4.53;1.77;;;19.60;91.20;;;;;;4162146;28;20060;-76
2021/05/18 18:01:09;;;;;;;7.18;1.90;;;19.20;91.50;;;;;;4162149;28;20039;-76
2021/05/18 18:03:09;;;;;;;2.80;1.75;;;19.10;92.80;;;;;;4162327;28;20101;-75
2021/05/18 18:05:28;;;;;;;2.13;1.77;;;19.00;94.10;;;;;;4163689;28;20057;-76
2021/05/18 18:07:30;;;;;;;2.25;1.65;;;19.00;94.80;;;;;;4162235;28;20033;-77
2021/05/18 18:14:11;;;;;;;2.53;2.13;;;18.40;97.30;;;;;;4159329;28;20046;-77
2021/05/18 18:16:13;;;;;;;4.38;2.20;;;18.30;98.70;;;;;;4162478;28;20140;-75
2021/05/18 18:18:14;;;;;;;4.43;2.05;;;18.20;99.90;;;;;;4161907;28;20028;-75
2021/05/18 18:20:15;;;;;;;4.03;2.28;;;17.90;99.90;;;;;;4161687;28;20037;-76
2021/05/18 18:22:34;;;;;;;5.90;2.20;;;17.50;99.90;;;;;;4161768;28;20026;-76
2021/05/18 18:24:37;;;;;;;2.88;2.38;;;16.90;99.90;;;;;;4159231;28;20033;-76
2021/05/18 18:26:38;;;;;;;6.10;2.45;;;16.50;99.90;;;;;;4158600;28;20029;-75
2021/05/18 18:28:59;;;;;;;8.93;2.90;;;16.20;99.90;;;;;;4162284;28;20040;-75
2021/05/18 18:36:53;;;;;;;7.50;3.05;;;15.10;99.90;;;;;;4161911;28;20144;-75
2021/05/18 18:39:32;;;;;;;5.80;2.83;;;14.70;99.90;;;;;;4162452;28;20436;-75
2021/05/18 18:44:11;;;;;;;5.35;2.65;;;14.30;99.90;;;;;;4161227;28;20032;-75
2021/05/18 18:49:09;;;;;;;5.07;3.08;;;14.10;99.90;;;;;;4169933;28;20048;-75
2021/05/18 18:51:32;;;;;;;6.25;2.83;;;14.10;99.90;;;;;;4169492;28;20028;-75
2021/05/18 18:53:52;;;;;;;4.22;3.20;;;13.90;99.90;;;;;;4161452;28;20465;-75
2021/05/18 18:56:14;;;;;;;7.82;3.75;;;13.80;99.90;;;;;;4176961;28;20033;-76
2021/05/18 18:58:35;;;;;;;4.05;2.80;;;13.50;99.90;;;;;;4178703;28;20021;-75
2021/05/18 19:00:54;;;;;;;4.32;2.63;;;13.40;99.90;;;;;;4178801;28;20021;-75
2021/05/18 19:03:16;;;;;;;5.63;2.92;;;13.20;99.90;;;;;;4177255;28;20122;-75
2021/05/18 19:05:59;;;;;;;5.63;2.60;;;13.30;99.90;;;;;;4176327;28;20053;-75
2021/05/18 19:08:46;;;;;;;9.63;2.75;;;13.10;99.90;;;;;;4161589;28;20551;-75
2021/05/18 19:11:13;;;;;;;8.15;3.05;;;13.10;99.90;;;;;;4161096;28;20037;-76
2021/05/18 19:13:08;;;;;;;6.15;3.10;;;13.00;99.90;;;;;;4178096;28;20025;-74
2021/05/18 19:22:45;;;;;;;9.30;3.90;;;12.50;99.90;;;;;;4175075;28;20422;-75
2021/05/18 19:24:46;;;;;;;6.03;3.53;;;12.30;99.90;;;;;;4158729;28;20117;-75
2021/05/18 19:26:47;;;;;;;3.58;3.28;;;12.10;99.90;;;;;;4178846;28;20105;-75
2021/05/18 19:29:07;;;;;;;6.93;3.50;;;12.10;99.90;;;;;;4178966;28;20118;-75
2021/05/18 19:34:26;;;;;;;7.40;3.63;;;12.00;99.90;;;;;;4177046;28;20040;-74
2021/05/18 19:37:13;;;;;;;4.22;3.25;;;11.70;99.90;;;;;;4160707;28;20648;-75
2021/05/18 19:51:32;;;;;;;7.40;4.25;;;11.00;99.90;;;;;;4177763;28;20029;-74
2021/05/18 19:54:15;;;;;;;6.57;4.43;;;10.90;99.90;;;;;;4177969;28;20044;-76
2021/05/18 20:20:27;;;;;;;7.82;3.70;;;10.10;99.90;;;;;;4153472;28;20178;-75
2021/05/18 20:23:07;;;;;;;4.97;4.07;;;10.00;99.90;;;;;;4177054;28;20457;-75
2021/05/18 20:25:10;;;;;;;5.07;3.88;;;9.90;99.90;;;;;;4175938;28;20033;-75
2021/05/18 20:27:12;;;;;;;8.90;3.75;;;9.80;99.90;;;;;;4157905;28;20542;-75
2021/05/18 20:29:32;;;;;;;6.38;3.72;;;9.60;99.90;;;;;;4177205;28;20036;-74
2021/05/18 20:31:51;;;;;;;7.65;4.00;;;9.50;99.90;;;;;;4176289;28;20033;-74
2021/05/18 20:34:51;;;;;;;4.90;3.78;;;9.50;99.90;;;;;;4175396;28;20022;-74
2021/05/18 20:39:30;;;;;;;6.95;4.55;;;9.20;99.90;;;;;;4175363;28;20051;-76
2021/05/18 20:42:11;;;;;;;7.03;4.55;;;9.20;99.90;;;;;;4175756;28;20033;-76
2021/05/18 20:44:31;;;;;;;5.97;4.10;;;9.10;99.90;;;;;;4175789;28;20033;-76
2021/05/18 20:46:51;;;;;;;16.75;4.68;;;9.10;99.90;;;;;;4173769;28;20044;-75
2021/05/18 20:51:31;;;;;;;9.88;5.18;;;8.90;99.90;;;;;;4156659;28;20111;-74
2021/05/18 20:53:51;;;;;;;10.20;4.72;;;9.00;99.90;;;;;;4154963;28;20037;-75
2021/05/18 20:56:11;;;;;;;6.97;4.15;;;9.00;99.90;;;;;;4159503;28;20072;-75
2021/05/18 20:58:30;;;;;;;9.73;4.25;;;8.90;99.90;;;;;;4160981;28;20022;-75